createdAt,value
2023-02-19T00:01:00.507Z,17.80
2023-02-19T00:06:00.439Z,17.80
2023-02-19T00:11:00.389Z,17.79
2023-02-19T00:16:00.370Z,17.79
2023-02-19T00:21:00.243Z,17.79
2023-02-19T00:26:12.327Z,17.77
2023-02-19T00:31:00.158Z,17.73
2023-02-19T00:36:00.046Z,17.70
2023-02-19T00:40:59.986Z,17.71
2023-02-19T00:45:59.926Z,17.70
2023-02-19T00:50:59.867Z,17.66
2023-02-19T00:55:59.788Z,17.66
2023-02-19T01:00:59.723Z,17.66
2023-02-19T01:05:59.651Z,17.66
2023-02-19T01:10:59.606Z,17.62
2023-02-19T01:15:59.533Z,17.58
2023-02-19T01:20:59.462Z,17.62
2023-02-19T01:25:59.391Z,17.58
2023-02-19T01:30:59.354Z,17.57
2023-02-19T01:35:59.252Z,17.55
2023-02-19T01:40:59.190Z,17.51
2023-02-19T01:45:59.125Z,17.51
2023-02-19T01:50:59.067Z,17.49
2023-02-19T01:55:59.018Z,17.51
2023-02-19T02:00:58.946Z,17.46
2023-02-19T02:05:58.876Z,17.46
2023-02-19T02:10:58.814Z,17.42
2023-02-19T02:15:58.773Z,17.43
2023-02-19T02:20:58.682Z,17.42
2023-02-19T02:25:58.607Z,17.40
2023-02-19T02:30:58.597Z,17.39
2023-02-19T02:35:58.478Z,17.39
2023-02-19T02:40:58.418Z,17.40
2023-02-19T02:45:58.371Z,17.39
2023-02-19T02:50:58.307Z,17.38
2023-02-19T02:55:58.212Z,17.38
2023-02-19T03:00:58.170Z,17.36
2023-02-19T03:05:58.083Z,17.33
2023-02-19T03:10:58.021Z,17.33
2023-02-19T03:15:57.961Z,17.30
2023-02-19T03:20:57.906Z,17.27
2023-02-19T03:25:57.817Z,17.24
2023-02-19T03:30:57.783Z,17.27
2023-02-19T03:35:57.691Z,17.25
2023-02-19T03:40:57.627Z,17.21
2023-02-19T03:45:57.576Z,17.21
2023-02-19T03:50:57.493Z,17.20
2023-02-19T03:55:57.429Z,17.18
2023-02-19T04:00:57.390Z,17.12
2023-02-19T04:05:57.297Z,17.12
2023-02-19T04:10:57.246Z,17.10
2023-02-19T04:15:57.171Z,17.07
2023-02-19T04:20:57.111Z,17.09
2023-02-19T04:25:57.036Z,17.07
2023-02-19T04:30:57.009Z,17.05
2023-02-19T04:35:56.908Z,17.02
2023-02-19T04:40:56.834Z,16.99
2023-02-19T04:45:56.795Z,17.07
2023-02-19T04:50:56.712Z,17.17
2023-02-19T04:55:56.799Z,17.10
2023-02-19T05:00:56.589Z,17.12
2023-02-19T05:05:56.506Z,17.17
2023-02-19T05:10:56.445Z,17.17
2023-02-19T05:15:56.424Z,17.12
2023-02-19T05:20:56.339Z,17.15
2023-02-19T05:25:56.265Z,17.14
2023-02-19T05:30:56.265Z,17.12
2023-02-19T05:35:56.054Z,17.14
2023-02-19T05:40:55.998Z,17.15
2023-02-19T05:45:55.925Z,17.15
2023-02-19T05:50:55.860Z,17.14
2023-02-19T05:55:55.797Z,17.18
2023-02-19T06:00:55.734Z,17.18
2023-02-19T06:05:55.658Z,17.17
2023-02-19T06:10:55.599Z,17.21
2023-02-19T06:15:55.559Z,17.22
2023-02-19T06:20:55.469Z,17.32
2023-02-19T06:25:55.402Z,17.80
2023-02-19T06:30:55.343Z,18.05
2023-02-19T06:35:55.273Z,18.26
2023-02-19T06:40:55.210Z,18.34
2023-02-19T06:45:55.150Z,18.42
2023-02-19T06:50:55.093Z,18.42
2023-02-19T06:55:55.014Z,18.44
2023-02-19T07:00:55.002Z,18.47
2023-02-19T07:05:54.878Z,18.53
2023-02-19T07:10:54.815Z,18.54
2023-02-19T07:15:54.750Z,18.54
2023-02-19T07:20:54.685Z,18.59
2023-02-19T07:25:54.612Z,18.62
2023-02-19T07:30:54.584Z,18.66
2023-02-19T07:35:54.485Z,18.69
2023-02-19T07:40:54.437Z,18.72
2023-02-19T07:45:54.424Z,18.87
2023-02-19T07:50:54.329Z,19.20
2023-02-19T07:55:54.236Z,19.31
2023-02-19T08:00:54.190Z,19.24
2023-02-19T08:05:54.109Z,19.39
2023-02-19T08:10:54.038Z,19.39
2023-02-19T08:15:56.302Z,19.64
2023-02-19T08:20:53.901Z,20.17
2023-02-19T08:25:53.860Z,21.36
2023-02-19T08:30:53.787Z,22.31
2023-02-19T08:35:53.704Z,23.38
2023-02-19T08:40:53.639Z,22.89
2023-02-19T08:45:53.604Z,22.26
2023-02-19T08:50:53.520Z,21.94
2023-02-19T08:55:53.443Z,21.22
2023-02-19T09:00:53.371Z,21.13
2023-02-19T09:05:53.307Z,21.01
2023-02-19T09:10:53.241Z,20.97
2023-02-19T09:15:53.219Z,21.05
2023-02-19T09:20:53.131Z,21.24
2023-02-19T09:25:53.045Z,21.19
2023-02-19T09:30:53.033Z,22.05
2023-02-19T09:35:52.950Z,21.34
2023-02-19T09:40:52.857Z,21.06
2023-02-19T09:45:52.867Z,21.22
2023-02-19T09:50:52.731Z,21.33
2023-02-19T09:55:52.664Z,21.28
2023-02-19T10:00:52.693Z,21.13
2023-02-19T10:05:52.528Z,21.15
2023-02-19T10:10:52.484Z,21.51
2023-02-19T10:15:52.422Z,21.61
2023-02-19T10:20:52.346Z,21.34
2023-02-19T10:25:52.272Z,21.31
2023-02-19T10:30:52.246Z,21.37
2023-02-19T10:35:52.141Z,21.43
2023-02-19T10:40:52.089Z,21.42
2023-02-19T10:45:52.020Z,21.37
2023-02-19T10:50:51.958Z,21.38
2023-02-19T10:55:51.894Z,21.53
2023-02-19T11:00:51.842Z,21.56
2023-02-19T11:05:51.762Z,21.61
2023-02-19T11:10:51.705Z,21.49
2023-02-19T11:15:51.690Z,21.71
2023-02-19T11:20:51.573Z,21.75
2023-02-19T11:25:51.516Z,21.81
2023-02-19T11:30:51.447Z,21.77
2023-02-19T11:35:51.380Z,21.68
2023-02-19T11:40:51.376Z,21.52
2023-02-19T11:45:51.253Z,21.46
2023-02-19T11:50:51.197Z,21.43
2023-02-19T11:55:51.125Z,21.38
2023-02-19T12:00:51.068Z,21.45
2023-02-19T12:05:50.993Z,21.26
2023-02-19T12:10:50.929Z,21.15
2023-02-19T12:15:50.867Z,21.15
2023-02-19T12:20:50.855Z,21.13
2023-02-19T12:25:50.750Z,20.94
2023-02-19T12:30:50.702Z,20.76
2023-02-19T12:35:50.614Z,20.81
2023-02-19T12:40:50.708Z,20.82
2023-02-19T12:45:50.491Z,20.82
2023-02-19T12:50:50.415Z,20.75
2023-02-19T12:55:50.353Z,20.75
2023-02-19T13:00:50.650Z,20.69
2023-02-19T13:05:50.239Z,20.76
2023-02-19T13:10:50.323Z,20.73
2023-02-19T13:15:50.102Z,20.88
2023-02-19T13:20:50.041Z,21.03
2023-02-19T13:25:50.004Z,20.91
2023-02-19T13:30:50.126Z,20.85
2023-02-19T13:35:49.841Z,20.64
2023-02-19T13:40:49.782Z,20.53
2023-02-19T13:45:49.737Z,20.38
2023-02-19T13:50:49.663Z,20.54
2023-02-19T13:55:49.593Z,20.64
2023-02-19T14:00:49.611Z,20.76
2023-02-19T14:05:49.461Z,20.94
2023-02-19T14:10:49.399Z,20.88
2023-02-19T14:15:49.503Z,20.76
2023-02-19T14:20:49.272Z,20.73
2023-02-19T14:25:49.203Z,20.72
2023-02-19T14:30:49.175Z,20.75
2023-02-19T14:35:49.072Z,20.88
2023-02-19T14:40:49.008Z,20.90
2023-02-19T14:45:48.964Z,20.88
2023-02-19T14:50:48.885Z,20.73
2023-02-19T14:55:48.828Z,20.66
2023-02-19T15:00:48.754Z,20.66
2023-02-19T15:05:48.684Z,20.69
2023-02-19T15:10:48.627Z,20.68
2023-02-19T15:15:48.608Z,20.68
2023-02-19T15:20:48.496Z,20.64
2023-02-19T15:25:48.432Z,20.63
2023-02-19T15:30:48.384Z,20.61
2023-02-19T15:35:48.306Z,20.66
2023-02-19T15:40:48.254Z,20.58
2023-02-19T15:45:48.185Z,20.48
2023-02-19T15:50:48.120Z,20.51
2023-02-19T15:55:48.067Z,20.44
2023-02-19T16:00:47.998Z,20.51
2023-02-19T16:05:47.922Z,20.53
2023-02-19T16:10:47.866Z,20.31
2023-02-19T16:15:47.815Z,20.13
2023-02-19T16:20:47.735Z,19.92
2023-02-19T16:25:47.672Z,19.90
2023-02-19T16:30:47.607Z,19.86
2023-02-19T16:35:47.548Z,19.76
2023-02-19T16:40:47.479Z,19.71
2023-02-19T16:45:47.511Z,19.64
2023-02-19T16:50:47.355Z,19.90
2023-02-19T16:55:47.336Z,19.98
2023-02-19T17:00:47.385Z,20.25
2023-02-19T17:05:47.356Z,20.26
2023-02-19T17:10:47.235Z,20.37
2023-02-19T17:15:47.053Z,20.37
2023-02-19T17:20:46.966Z,20.50
2023-02-19T17:25:46.899Z,20.54
2023-02-19T17:30:46.840Z,20.58
2023-02-19T17:35:46.769Z,20.40
2023-02-19T17:40:46.717Z,20.42
2023-02-19T17:45:46.720Z,20.37
2023-02-19T17:50:46.582Z,20.44
2023-02-19T17:55:46.529Z,20.44
2023-02-19T18:00:46.455Z,20.27
2023-02-19T18:05:46.391Z,20.30
2023-02-19T18:10:46.333Z,20.19
2023-02-19T18:15:46.256Z,20.12
2023-02-19T18:20:46.201Z,20.05
2023-02-19T18:25:46.128Z,20.04
2023-02-19T18:30:46.189Z,19.97
2023-02-19T18:35:46.000Z,20.10
2023-02-19T18:40:45.945Z,20.00
2023-02-19T18:45:45.957Z,20.05
2023-02-19T18:50:45.816Z,19.97
2023-02-19T18:55:45.747Z,19.94
2023-02-19T19:00:45.689Z,19.90
2023-02-19T19:05:45.624Z,19.92
2023-02-19T19:10:45.564Z,19.95
2023-02-19T19:15:45.518Z,19.86
2023-02-19T19:20:45.443Z,19.82
2023-02-19T19:25:45.363Z,19.70
2023-02-19T19:30:45.368Z,19.70
2023-02-19T19:35:45.248Z,19.65
2023-02-19T19:40:45.176Z,19.49
2023-02-19T19:45:45.106Z,19.42
2023-02-19T19:50:45.047Z,19.28
2023-02-19T19:55:44.983Z,19.12
2023-02-19T20:00:44.913Z,18.99
2023-02-19T20:05:44.860Z,19.01
2023-02-19T20:10:45.490Z,18.87
2023-02-19T20:15:44.783Z,18.79
2023-02-19T20:20:44.654Z,18.71
2023-02-19T20:25:44.594Z,18.62
2023-02-19T20:30:44.593Z,18.56
2023-02-19T20:35:44.490Z,18.53
2023-02-19T20:40:44.400Z,18.51
2023-02-19T20:45:44.347Z,18.47
2023-02-19T20:50:44.273Z,18.42
2023-02-19T20:55:44.209Z,18.38
2023-02-19T21:00:44.141Z,18.36
2023-02-19T21:05:44.115Z,18.31
2023-02-19T21:10:44.012Z,18.25
2023-02-19T21:15:43.981Z,18.19
2023-02-19T21:20:43.876Z,18.14
2023-02-19T21:25:43.817Z,18.11
2023-02-19T21:30:43.812Z,18.16
2023-02-19T21:35:43.694Z,18.11
2023-02-19T21:40:43.616Z,18.09
2023-02-19T21:45:43.614Z,18.01
2023-02-19T21:50:43.541Z,17.99
2023-02-19T21:55:56.656Z,17.91
2023-02-19T22:00:43.449Z,17.91
2023-02-19T22:05:43.345Z,17.91
2023-02-19T22:10:43.275Z,17.86
2023-02-19T22:15:43.219Z,17.80
2023-02-19T22:20:43.145Z,17.74
2023-02-19T22:25:43.083Z,17.73
2023-02-19T22:30:43.050Z,17.76
2023-02-19T22:35:42.964Z,17.68
2023-02-19T22:40:42.878Z,17.62
2023-02-19T22:45:42.836Z,17.55
2023-02-19T22:50:42.760Z,17.60
2023-02-19T22:55:42.689Z,17.58
2023-02-19T23:00:42.621Z,17.55
2023-02-19T23:05:42.562Z,17.60
2023-02-19T23:10:42.497Z,17.53
2023-02-19T23:15:42.435Z,17.53
2023-02-19T23:20:42.365Z,17.51
2023-02-19T23:25:42.324Z,17.51
2023-02-19T23:30:42.320Z,17.47
2023-02-19T23:35:42.173Z,17.46
2023-02-19T23:40:42.098Z,17.43
2023-02-19T23:45:42.103Z,17.42
2023-02-19T23:50:41.977Z,17.40
2023-02-19T23:55:41.916Z,17.42
